Impacts TAF Board
For situational awareness. Not to be used for flight planning purposes.
IDs:

KPHX - Phoenix/Sky Harbor, AZ, US

Issued at 0838 UTC 18 Jan 2019
Updated at 0947 UTC 18 Jan 2019
Potential Impact None Slight Moderate High
Time0851Z 18/10Z 18/11Z 18/12Z 18/13Z 18/14Z 18/15Z 18/16Z 18/17Z 18/18Z 18/19Z 18/20Z 18/21Z 18/22Z>>
Type OBS PRVL PRVL PRVL PRVL PRVL PRVL PRVL PRVL PRVL PRVL PRVL PRVL PRVL
VIS 10 >6 >6 >6 >6 >6 >6 >6 >6 >6 >6 >6 >6 >6
CIG 60 70 70 70 70 70 70 70 70 250 250 250 250 250
Cover BKN BKN BKN BKN BKN BKN BKN BKN BKN BKN BKN BKN BKN BKN
FltCat VFR VFR VFR VFR VFR VFR VFR VFR VFR VFR VFR VFR VFR VFR
WX -- -- -- -- -- -- -- -- -- -- -- -- -- --
WDir 140 100 100 100 100 100 100 100 100 310 310 310 310 310
WSpd 6 6 6 6 6 6 6 6 6 5 5 5 5 5
WGst -- -- -- -- -- -- -- -- -- -- -- -- -- --
Raw TAF
KPHX 180838Z 1809/1912 10006KT P6SM SCT050 BKN070 BKN150
  FM181800 31005KT P6SM FEW050 BKN250
  FM190600 08005KT P6SM SKC


Raw METAR
KPHX 180851Z 14006KT 10SM BKN060 BKN080 BKN140 14/10 A3008 RMK AO2 SLP178 T01440100 58012
KPHX 180751Z 09006KT 10SM FEW055 SCT075 BKN140 14/11 A3009 RMK AO2 SLP181 T01440106
KPHX 180651Z 00000KT 10SM BKN065 BKN080 16/11 A3012 RMK AO2 SLP190 T01560111 402060089

METAR Board
Radar Display
Forecast Discussion
For situational awareness. Not to be used for flight planning purposes.